sensor_id;sensor_type;location;lat;lon;timestamp;temperature;humidity
17053;DHT22;8643;48.824;11.422;2023-12-04T00:02:21;-8.70;99.90
17053;DHT22;8643;48.824;11.422;2023-12-04T00:07:18;-9.00;99.90
17053;DHT22;8643;48.824;11.422;2023-12-04T00:09:47;-8.70;99.90
17053;DHT22;8643;48.824;11.422;2023-12-04T00:12:15;-8.80;99.90
17053;DHT22;8643;48.824;11.422;2023-12-04T00:14:44;-8.70;99.90
17053;DHT22;8643;48.824;11.422;2023-12-04T00:17:14;-8.80;99.90
17053;DHT22;8643;48.824;11.422;2023-12-04T00:19:43;-8.80;99.90
17053;DHT22;8643;48.824;11.422;2023-12-04T00:22:12;-8.80;99.90
17053;DHT22;8643;48.824;11.422;2023-12-04T00:24:40;-8.80;99.90
17053;DHT22;8643;48.824;11.422;2023-12-04T00:27:09;-8.80;99.90
17053;DHT22;8643;48.824;11.422;2023-12-04T00:29:37;-8.90;99.90
17053;DHT22;8643;48.824;11.422;2023-12-04T00:32:05;-8.80;99.90
17053;DHT22;8643;48.824;11.422;2023-12-04T00:34:36;-8.60;99.90
17053;DHT22;8643;48.824;11.422;2023-12-04T00:37:04;-8.50;99.90
17053;DHT22;8643;48.824;11.422;2023-12-04T00:39:33;-8.40;99.90
17053;DHT22;8643;48.824;11.422;2023-12-04T00:42:02;-8.40;99.90
17053;DHT22;8643;48.824;11.422;2023-12-04T00:44:30;-8.10;99.90
17053;DHT22;8643;48.824;11.422;2023-12-04T00:46:59;-8.30;99.90
17053;DHT22;8643;48.824;11.422;2023-12-04T00:49:27;-8.10;99.90
17053;DHT22;8643;48.824;11.422;2023-12-04T00:51:57;-8.00;99.90
17053;DHT22;8643;48.824;11.422;2023-12-04T00:54:26;-8.80;99.90
17053;DHT22;8643;48.824;11.422;2023-12-04T00:56:55;-8.00;99.90
17053;DHT22;8643;48.824;11.422;2023-12-04T00:59:23;-8.00;99.90
17053;DHT22;8643;48.824;11.422;2023-12-04T01:01:52;-8.00;99.90
17053;DHT22;8643;48.824;11.422;2023-12-04T01:04:20;-7.90;99.90
17053;DHT22;8643;48.824;11.422;2023-12-04T01:06:49;-7.80;99.90
17053;DHT22;8643;48.824;11.422;2023-12-04T01:09:19;-7.80;99.90
17053;DHT22;8643;48.824;11.422;2023-12-04T01:11:52;-7.80;99.90
17053;DHT22;8643;48.824;11.422;2023-12-04T01:14:21;-7.70;99.90
17053;DHT22;8643;48.824;11.422;2023-12-04T01:16:49;-7.70;99.90
17053;DHT22;8643;48.824;11.422;2023-12-04T01:19:18;-7.70;99.90
17053;DHT22;8643;48.824;11.422;2023-12-04T01:21:47;-7.60;99.90
17053;DHT22;8643;48.824;11.422;2023-12-04T01:24:15;-7.70;99.90
17053;DHT22;8643;48.824;11.422;2023-12-04T01:26:45;-7.60;99.90
17053;DHT22;8643;48.824;11.422;2023-12-04T01:29:14;-7.60;99.90
17053;DHT22;8643;48.824;11.422;2023-12-04T01:31:42;-7.60;99.90
17053;DHT22;8643;48.824;11.422;2023-12-04T01:34:11;-7.60;99.90
17053;DHT22;8643;48.824;11.422;2023-12-04T01:36:40;-7.70;99.90
17053;DHT22;8643;48.824;11.422;2023-12-04T01:39:09;-7.70;99.90
17053;DHT22;8643;48.824;11.422;2023-12-04T01:41:37;-7.60;99.90
17053;DHT22;8643;48.824;11.422;2023-12-04T01:44:08;-7.70;99.90
17053;DHT22;8643;48.824;11.422;2023-12-04T01:46:37;-7.60;99.90
17053;DHT22;8643;48.824;11.422;2023-12-04T01:49:06;-7.60;99.90
17053;DHT22;8643;48.824;11.422;2023-12-04T01:51:35;-7.60;99.90
17053;DHT22;8643;48.824;11.422;2023-12-04T01:54:05;-7.40;99.90
17053;DHT22;8643;48.824;11.422;2023-12-04T01:56:36;-7.60;99.90
17053;DHT22;8643;48.824;11.422;2023-12-04T01:59:04;-7.60;99.90
17053;DHT22;8643;48.824;11.422;2023-12-04T02:01:36;-7.60;99.90
17053;DHT22;8643;48.824;11.422;2023-12-04T02:04:05;-7.70;99.90
17053;DHT22;8643;48.824;11.422;2023-12-04T02:06:34;-7.70;99.90
17053;DHT22;8643;48.824;11.422;2023-12-04T02:09:03;-7.80;99.90
17053;DHT22;8643;48.824;11.422;2023-12-04T02:11:33;-7.70;99.90
17053;DHT22;8643;48.824;11.422;2023-12-04T02:14:02;-7.80;99.90
17053;DHT22;8643;48.824;11.422;2023-12-04T02:16:32;-7.90;99.90
17053;DHT22;8643;48.824;11.422;2023-12-04T02:19:07;-7.80;99.90
17053;DHT22;8643;48.824;11.422;2023-12-04T02:21:39;-7.80;99.90
17053;DHT22;8643;48.824;11.422;2023-12-04T02:24:10;-7.80;99.90
17053;DHT22;8643;48.824;11.422;2023-12-04T02:26:44;-7.70;99.90
17053;DHT22;8643;48.824;11.422;2023-12-04T02:29:23;-7.70;99.90
17053;DHT22;8643;48.824;11.422;2023-12-04T02:31:58;-7.80;99.90
17053;DHT22;8643;48.824;11.422;2023-12-04T02:34:32;-7.80;99.90
17053;DHT22;8643;48.824;11.422;2023-12-04T02:37:03;-7.80;99.90
17053;DHT22;8643;48.824;11.422;2023-12-04T02:39:36;-7.80;99.90
17053;DHT22;8643;48.824;11.422;2023-12-04T02:42:04;-7.80;99.90
17053;DHT22;8643;48.824;11.422;2023-12-04T02:44:34;-7.80;99.90
17053;DHT22;8643;48.824;11.422;2023-12-04T02:47:02;-7.70;99.90
17053;DHT22;8643;48.824;11.422;2023-12-04T02:49:31;-7.80;99.90
17053;DHT22;8643;48.824;11.422;2023-12-04T02:51:59;-7.80;99.90
17053;DHT22;8643;48.824;11.422;2023-12-04T02:54:29;-7.80;99.90
17053;DHT22;8643;48.824;11.422;2023-12-04T02:56:59;-7.90;99.90
17053;DHT22;8643;48.824;11.422;2023-12-04T02:59:28;-7.90;99.90
17053;DHT22;8643;48.824;11.422;2023-12-04T03:01:56;-7.90;99.90
17053;DHT22;8643;48.824;11.422;2023-12-04T03:04:26;-7.90;99.90
17053;DHT22;8643;48.824;11.422;2023-12-04T03:06:54;-7.90;99.90
17053;DHT22;8643;48.824;11.422;2023-12-04T03:09:23;-7.80;99.90
17053;DHT22;8643;48.824;11.422;2023-12-04T03:12:13;-8.10;99.90
17053;DHT22;8643;48.824;11.422;2023-12-04T03:14:42;-8.40;99.90
17053;DHT22;8643;48.824;11.422;2023-12-04T03:17:10;-8.10;99.90
17053;DHT22;8643;48.824;11.422;2023-12-04T03:19:39;-8.20;99.90
17053;DHT22;8643;48.824;11.422;2023-12-04T03:22:08;-8.10;99.90
17053;DHT22;8643;48.824;11.422;2023-12-04T03:24:36;-8.20;99.90
17053;DHT22;8643;48.824;11.422;2023-12-04T03:27:05;-8.20;99.90
17053;DHT22;8643;48.824;11.422;2023-12-04T03:29:34;-8.30;99.90
17053;DHT22;8643;48.824;11.422;2023-12-04T03:32:03;-8.30;99.90
17053;DHT22;8643;48.824;11.422;2023-12-04T03:34:32;-8.30;99.90
17053;DHT22;8643;48.824;11.422;2023-12-04T03:37:00;-8.30;99.90
17053;DHT22;8643;48.824;11.422;2023-12-04T03:39:29;-8.20;99.90
17053;DHT22;8643;48.824;11.422;2023-12-04T03:41:57;-8.30;99.90
17053;DHT22;8643;48.824;11.422;2023-12-04T03:44:26;-8.30;99.90
17053;DHT22;8643;48.824;11.422;2023-12-04T03:46:56;-8.20;99.90
17053;DHT22;8643;48.824;11.422;2023-12-04T03:49:24;-8.30;99.90
17053;DHT22;8643;48.824;11.422;2023-12-04T03:51:53;-8.30;99.90
17053;DHT22;8643;48.824;11.422;2023-12-04T03:54:21;-8.20;99.90
17053;DHT22;8643;48.824;11.422;2023-12-04T03:56:50;-8.20;99.90
17053;DHT22;8643;48.824;11.422;2023-12-04T03:59:18;-8.20;99.90
17053;DHT22;8643;48.824;11.422;2023-12-04T04:01:46;-8.20;99.90
17053;DHT22;8643;48.824;11.422;2023-12-04T04:04:16;-8.10;99.90
17053;DHT22;8643;48.824;11.422;2023-12-04T04:06:45;-8.00;99.90
17053;DHT22;8643;48.824;11.422;2023-12-04T04:09:13;-8.00;99.90
17053;DHT22;8643;48.824;11.422;2023-12-04T04:11:43;-8.00;99.90
17053;DHT22;8643;48.824;11.422;2023-12-04T04:14:11;-7.90;99.90
17053;DHT22;8643;48.824;11.422;2023-12-04T04:16:40;-7.90;99.90
17053;DHT22;8643;48.824;11.422;2023-12-04T04:19:08;-7.80;99.90
17053;DHT22;8643;48.824;11.422;2023-12-04T04:21:41;-7.80;99.90
17053;DHT22;8643;48.824;11.422;2023-12-04T04:24:09;-7.70;99.90
17053;DHT22;8643;48.824;11.422;2023-12-04T04:26:38;-7.70;99.90
17053;DHT22;8643;48.824;11.422;2023-12-04T04:29:06;-7.70;99.90
17053;DHT22;8643;48.824;11.422;2023-12-04T04:31:36;-7.70;99.90
17053;DHT22;8643;48.824;11.422;2023-12-04T04:34:04;-7.70;99.90
17053;DHT22;8643;48.824;11.422;2023-12-04T04:36:33;-7.80;99.90
17053;DHT22;8643;48.824;11.422;2023-12-04T04:39:04;-7.70;99.90
17053;DHT22;8643;48.824;11.422;2023-12-04T04:41:33;-7.70;99.90
17053;DHT22;8643;48.824;11.422;2023-12-04T04:44:02;-7.70;99.90
17053;DHT22;8643;48.824;11.422;2023-12-04T04:46:30;-7.80;99.90
17053;DHT22;8643;48.824;11.422;2023-12-04T04:48:59;-7.80;99.90
17053;DHT22;8643;48.824;11.422;2023-12-04T04:51:28;-7.80;99.90
17053;DHT22;8643;48.824;11.422;2023-12-04T04:53:56;-7.80;99.90
17053;DHT22;8643;48.824;11.422;2023-12-04T04:56:26;-7.80;99.90
17053;DHT22;8643;48.824;11.422;2023-12-04T04:58:56;-7.80;99.90
17053;DHT22;8643;48.824;11.422;2023-12-04T05:01:25;-7.80;99.90
17053;DHT22;8643;48.824;11.422;2023-12-04T05:03:53;-7.80;99.90
17053;DHT22;8643;48.824;11.422;2023-12-04T05:06:22;-7.60;99.90
17053;DHT22;8643;48.824;11.422;2023-12-04T05:08:52;-7.70;99.90
17053;DHT22;8643;48.824;11.422;2023-12-04T05:11:20;-7.70;99.90
17053;DHT22;8643;48.824;11.422;2023-12-04T05:13:51;-7.70;99.90
17053;DHT22;8643;48.824;11.422;2023-12-04T05:18:48;-7.80;99.90
17053;DHT22;8643;48.824;11.422;2023-12-04T05:21:17;-7.70;99.90
17053;DHT22;8643;48.824;11.422;2023-12-04T05:23:45;-7.80;99.90
17053;DHT22;8643;48.824;11.422;2023-12-04T05:26:14;-7.70;99.90
17053;DHT22;8643;48.824;11.422;2023-12-04T05:28:42;-7.70;99.90
17053;DHT22;8643;48.824;11.422;2023-12-04T05:31:12;-7.70;99.90
17053;DHT22;8643;48.824;11.422;2023-12-04T05:33:40;-7.70;99.90
17053;DHT22;8643;48.824;11.422;2023-12-04T05:36:11;-7.70;99.90
17053;DHT22;8643;48.824;11.422;2023-12-04T05:38:40;-7.60;99.90
17053;DHT22;8643;48.824;11.422;2023-12-04T05:41:08;-7.60;99.90
17053;DHT22;8643;48.824;11.422;2023-12-04T05:43:37;-7.50;99.90
17053;DHT22;8643;48.824;11.422;2023-12-04T05:46:05;-7.50;99.90
17053;DHT22;8643;48.824;11.422;2023-12-04T05:48:35;-7.50;99.90
17053;DHT22;8643;48.824;11.422;2023-12-04T05:51:05;-7.50;99.90
17053;DHT22;8643;48.824;11.422;2023-12-04T05:53:33;-7.50;99.90
17053;DHT22;8643;48.824;11.422;2023-12-04T05:56:02;-7.50;99.90
17053;DHT22;8643;48.824;11.422;2023-12-04T05:58:32;-7.50;99.90
17053;DHT22;8643;48.824;11.422;2023-12-04T06:01:01;-7.60;99.90
17053;DHT22;8643;48.824;11.422;2023-12-04T06:03:30;-7.60;99.90
17053;DHT22;8643;48.824;11.422;2023-12-04T06:05:59;-7.70;99.90
17053;DHT22;8643;48.824;11.422;2023-12-04T06:08:31;-7.50;99.90
17053;DHT22;8643;48.824;11.422;2023-12-04T06:11:00;-7.40;99.90
17053;DHT22;8643;48.824;11.422;2023-12-04T06:13:29;-7.40;99.90
17053;DHT22;8643;48.824;11.422;2023-12-04T06:15:57;-7.40;99.90
17053;DHT22;8643;48.824;11.422;2023-12-04T06:18:26;-7.30;99.90
17053;DHT22;8643;48.824;11.422;2023-12-04T06:20:55;-7.30;99.90
17053;DHT22;8643;48.824;11.422;2023-12-04T06:23:26;-7.30;99.90
17053;DHT22;8643;48.824;11.422;2023-12-04T06:25:55;-7.30;99.90
17053;DHT22;8643;48.824;11.422;2023-12-04T06:28:25;-7.30;99.90
17053;DHT22;8643;48.824;11.422;2023-12-04T06:30:54;-7.40;99.90
17053;DHT22;8643;48.824;11.422;2023-12-04T06:33:23;-7.40;99.90
17053;DHT22;8643;48.824;11.422;2023-12-04T06:35:53;-7.40;99.90
17053;DHT22;8643;48.824;11.422;2023-12-04T06:38:26;-7.50;99.90
17053;DHT22;8643;48.824;11.422;2023-12-04T06:40:58;-7.50;99.90
17053;DHT22;8643;48.824;11.422;2023-12-04T06:43:27;-7.60;99.90
17053;DHT22;8643;48.824;11.422;2023-12-04T06:45:57;-7.70;99.90
17053;DHT22;8643;48.824;11.422;2023-12-04T06:48:26;-7.70;99.90
17053;DHT22;8643;48.824;11.422;2023-12-04T06:50:55;-7.80;99.90
17053;DHT22;8643;48.824;11.422;2023-12-04T06:53:23;-7.80;99.90
17053;DHT22;8643;48.824;11.422;2023-12-04T06:55:53;-7.70;99.90
17053;DHT22;8643;48.824;11.422;2023-12-04T06:58:22;-7.70;99.90
17053;DHT22;8643;48.824;11.422;2023-12-04T07:00:51;-7.80;99.90
17053;DHT22;8643;48.824;11.422;2023-12-04T07:03:20;-7.90;99.90
17053;DHT22;8643;48.824;11.422;2023-12-04T07:05:48;-8.00;99.90
17053;DHT22;8643;48.824;11.422;2023-12-04T07:08:17;-7.90;99.90
17053;DHT22;8643;48.824;11.422;2023-12-04T07:10:45;-8.10;99.90
17053;DHT22;8643;48.824;11.422;2023-12-04T07:13:15;-8.20;99.90
17053;DHT22;8643;48.824;11.422;2023-12-04T07:15:44;-8.40;99.90
17053;DHT22;8643;48.824;11.422;2023-12-04T07:18:12;-8.40;99.90
17053;DHT22;8643;48.824;11.422;2023-12-04T07:20:41;-8.50;99.90
17053;DHT22;8643;48.824;11.422;2023-12-04T07:23:09;-8.30;99.90
17053;DHT22;8643;48.824;11.422;2023-12-04T07:25:38;-8.30;99.90
17053;DHT22;8643;48.824;11.422;2023-12-04T07:28:06;-8.20;99.90
17053;DHT22;8643;48.824;11.422;2023-12-04T07:30:36;-8.20;99.90
17053;DHT22;8643;48.824;11.422;2023-12-04T07:33:05;-8.20;99.90
17053;DHT22;8643;48.824;11.422;2023-12-04T07:35:36;-8.40;99.90
17053;DHT22;8643;48.824;11.422;2023-12-04T07:38:04;-8.40;99.90
17053;DHT22;8643;48.824;11.422;2023-12-04T07:40:33;-8.30;99.90
17053;DHT22;8643;48.824;11.422;2023-12-04T07:45:31;-8.20;99.90
17053;DHT22;8643;48.824;11.422;2023-12-04T07:48:03;-8.20;99.90
17053;DHT22;8643;48.824;11.422;2023-12-04T07:55:32;-7.80;99.90
17053;DHT22;8643;48.824;11.422;2023-12-04T08:00:29;-7.60;99.90
17053;DHT22;8643;48.824;11.422;2023-12-04T08:02:58;-7.10;99.90
17053;DHT22;8643;48.824;11.422;2023-12-04T08:05:28;-7.00;99.90
17053;DHT22;8643;48.824;11.422;2023-12-04T08:07:58;-6.80;99.90
17053;DHT22;8643;48.824;11.422;2023-12-04T08:10:27;-6.70;99.90
17053;DHT22;8643;48.824;11.422;2023-12-04T08:12:56;-6.60;99.90
17053;DHT22;8643;48.824;11.422;2023-12-04T08:15:25;-6.60;99.90
17053;DHT22;8643;48.824;11.422;2023-12-04T08:20:24;-6.40;99.90
17053;DHT22;8643;48.824;11.422;2023-12-04T08:23:06;-6.40;99.90
17053;DHT22;8643;48.824;11.422;2023-12-04T08:25:35;-6.30;99.90
17053;DHT22;8643;48.824;11.422;2023-12-04T08:28:05;-6.20;99.90
17053;DHT22;8643;48.824;11.422;2023-12-04T08:30:36;-6.10;99.90
17053;DHT22;8643;48.824;11.422;2023-12-04T08:33:04;-5.90;99.90
17053;DHT22;8643;48.824;11.422;2023-12-04T08:35:33;-5.90;99.90
17053;DHT22;8643;48.824;11.422;2023-12-04T08:38:02;-5.90;99.90
17053;DHT22;8643;48.824;11.422;2023-12-04T08:40:32;-5.70;99.90
17053;DHT22;8643;48.824;11.422;2023-12-04T08:43:01;-5.70;99.90
17053;DHT22;8643;48.824;11.422;2023-12-04T08:45:30;-5.60;99.90
17053;DHT22;8643;48.824;11.422;2023-12-04T08:48:00;-5.50;99.90
17053;DHT22;8643;48.824;11.422;2023-12-04T08:50:29;-5.50;99.90
17053;DHT22;8643;48.824;11.422;2023-12-04T08:52:57;-5.40;99.90
17053;DHT22;8643;48.824;11.422;2023-12-04T08:55:26;-5.40;99.90
17053;DHT22;8643;48.824;11.422;2023-12-04T08:57:56;-5.40;99.90
17053;DHT22;8643;48.824;11.422;2023-12-04T09:00:25;-5.30;99.90
17053;DHT22;8643;48.824;11.422;2023-12-04T09:02:53;-5.40;99.90
17053;DHT22;8643;48.824;11.422;2023-12-04T09:05:34;-5.30;99.90
17053;DHT22;8643;48.824;11.422;2023-12-04T09:08:03;-5.30;99.90
17053;DHT22;8643;48.824;11.422;2023-12-04T09:10:34;-5.30;99.90
17053;DHT22;8643;48.824;11.422;2023-12-04T09:13:24;-5.30;99.90
17053;DHT22;8643;48.824;11.422;2023-12-04T09:15:53;-5.30;99.90
17053;DHT22;8643;48.824;11.422;2023-12-04T09:18:22;-5.40;99.90
17053;DHT22;8643;48.824;11.422;2023-12-04T09:20:51;-6.90;99.90
17053;DHT22;8643;48.824;11.422;2023-12-04T09:23:20;-5.30;99.90
17053;DHT22;8643;48.824;11.422;2023-12-04T09:25:48;-5.30;99.90
17053;DHT22;8643;48.824;11.422;2023-12-04T09:28:17;-5.20;99.90
17053;DHT22;8643;48.824;11.422;2023-12-04T09:30:47;-5.20;99.90
17053;DHT22;8643;48.824;11.422;2023-12-04T09:35:44;-5.10;99.90
17053;DHT22;8643;48.824;11.422;2023-12-04T09:38:13;-4.90;99.90
17053;DHT22;8643;48.824;11.422;2023-12-04T09:40:41;-4.90;99.90
17053;DHT22;8643;48.824;11.422;2023-12-04T09:43:10;-4.70;99.90
17053;DHT22;8643;48.824;11.422;2023-12-04T09:45:39;-4.80;99.90
17053;DHT22;8643;48.824;11.422;2023-12-04T09:48:10;-4.70;99.90
17053;DHT22;8643;48.824;11.422;2023-12-04T09:50:39;-4.20;99.90
17053;DHT22;8643;48.824;11.422;2023-12-04T09:53:10;-4.60;99.90
17053;DHT22;8643;48.824;11.422;2023-12-04T09:55:40;-4.40;99.90
17053;DHT22;8643;48.824;11.422;2023-12-04T09:58:11;-4.50;99.90
17053;DHT22;8643;48.824;11.422;2023-12-04T10:00:43;-4.50;99.90
17053;DHT22;8643;48.824;11.422;2023-12-04T10:03:13;-4.40;99.90
17053;DHT22;8643;48.824;11.422;2023-12-04T10:05:44;-4.20;99.90
17053;DHT22;8643;48.824;11.422;2023-12-04T10:08:13;-4.00;99.90
17053;DHT22;8643;48.824;11.422;2023-12-04T10:10:42;-4.00;99.90
17053;DHT22;8643;48.824;11.422;2023-12-04T10:13:12;-3.90;99.90
17053;DHT22;8643;48.824;11.422;2023-12-04T10:16:00;-3.90;99.90
17053;DHT22;8643;48.824;11.422;2023-12-04T10:18:31;-3.90;99.90
17053;DHT22;8643;48.824;11.422;2023-12-04T10:21:00;-3.90;99.90
17053;DHT22;8643;48.824;11.422;2023-12-04T10:23:37;-3.90;99.90
17053;DHT22;8643;48.824;11.422;2023-12-04T10:26:08;-4.00;99.90
17053;DHT22;8643;48.824;11.422;2023-12-04T10:28:36;-4.10;99.90
17053;DHT22;8643;48.824;11.422;2023-12-04T10:31:06;-4.10;99.90
17053;DHT22;8643;48.824;11.422;2023-12-04T10:33:36;-4.20;99.90
17053;DHT22;8643;48.824;11.422;2023-12-04T10:36:11;-4.10;99.90
17053;DHT22;8643;48.824;11.422;2023-12-04T10:38:40;-4.10;99.90
17053;DHT22;8643;48.824;11.422;2023-12-04T10:41:12;-4.10;99.90
17053;DHT22;8643;48.824;11.422;2023-12-04T10:43:46;-4.20;99.90
17053;DHT22;8643;48.824;11.422;2023-12-04T10:46:27;-4.40;99.90
17053;DHT22;8643;48.824;11.422;2023-12-04T10:48:58;-4.50;99.90
17053;DHT22;8643;48.824;11.422;2023-12-04T10:51:30;-4.50;99.90
17053;DHT22;8643;48.824;11.422;2023-12-04T10:53:59;-4.40;99.90
17053;DHT22;8643;48.824;11.422;2023-12-04T10:56:31;-4.50;99.90
17053;DHT22;8643;48.824;11.422;2023-12-04T10:59:11;-4.30;99.90
17053;DHT22;8643;48.824;11.422;2023-12-04T11:01:44;-4.40;99.90
17053;DHT22;8643;48.824;11.422;2023-12-04T11:04:17;-4.60;99.90
17053;DHT22;8643;48.824;11.422;2023-12-04T11:06:51;-4.60;99.90
17053;DHT22;8643;48.824;11.422;2023-12-04T11:09:21;-4.60;99.90
17053;DHT22;8643;48.824;11.422;2023-12-04T11:11:57;-4.60;99.90
17053;DHT22;8643;48.824;11.422;2023-12-04T11:14:34;-4.70;99.90
17053;DHT22;8643;48.824;11.422;2023-12-04T11:17:10;-4.70;99.90
17053;DHT22;8643;48.824;11.422;2023-12-04T11:19:52;-4.70;99.90
17053;DHT22;8643;48.824;11.422;2023-12-04T11:22:25;-4.50;99.90
17053;DHT22;8643;48.824;11.422;2023-12-04T11:24:54;-4.40;99.90
17053;DHT22;8643;48.824;11.422;2023-12-04T11:27:24;-4.30;99.90
17053;DHT22;8643;48.824;11.422;2023-12-04T11:29:53;-4.30;99.90
17053;DHT22;8643;48.824;11.422;2023-12-04T11:32:24;-4.40;99.90
17053;DHT22;8643;48.824;11.422;2023-12-04T11:34:59;-4.50;99.90
17053;DHT22;8643;48.824;11.422;2023-12-04T11:37:29;-4.20;99.90
17053;DHT22;8643;48.824;11.422;2023-12-04T11:40:03;-4.20;99.90
17053;DHT22;8643;48.824;11.422;2023-12-04T11:42:32;-4.30;99.90
17053;DHT22;8643;48.824;11.422;2023-12-04T11:45:01;-4.30;99.90
17053;DHT22;8643;48.824;11.422;2023-12-04T11:47:30;-4.30;99.90
17053;DHT22;8643;48.824;11.422;2023-12-04T11:50:04;-4.20;99.90
17053;DHT22;8643;48.824;11.422;2023-12-04T11:52:34;-4.10;99.90
17053;DHT22;8643;48.824;11.422;2023-12-04T11:55:04;-4.10;99.90
17053;DHT22;8643;48.824;11.422;2023-12-04T11:57:35;-4.00;99.90
17053;DHT22;8643;48.824;11.422;2023-12-04T12:00:09;-3.90;99.90
17053;DHT22;8643;48.824;11.422;2023-12-04T12:02:47;-3.70;99.90
17053;DHT22;8643;48.824;11.422;2023-12-04T12:05:49;-3.70;99.90
17053;DHT22;8643;48.824;11.422;2023-12-04T12:08:20;-3.70;99.90
17053;DHT22;8643;48.824;11.422;2023-12-04T12:10:51;-3.80;99.90
17053;DHT22;8643;48.824;11.422;2023-12-04T12:13:21;-3.80;99.90
17053;DHT22;8643;48.824;11.422;2023-12-04T12:15:52;-3.90;99.90
17053;DHT22;8643;48.824;11.422;2023-12-04T12:18:22;-4.00;99.90
17053;DHT22;8643;48.824;11.422;2023-12-04T12:20:56;-4.10;99.90
17053;DHT22;8643;48.824;11.422;2023-12-04T12:23:24;-4.10;99.90
17053;DHT22;8643;48.824;11.422;2023-12-04T12:25:55;-4.10;99.90
17053;DHT22;8643;48.824;11.422;2023-12-04T12:28:23;-4.00;99.90
17053;DHT22;8643;48.824;11.422;2023-12-04T12:30:52;-3.80;99.90
17053;DHT22;8643;48.824;11.422;2023-12-04T12:33:21;-3.80;99.90
17053;DHT22;8643;48.824;11.422;2023-12-04T12:35:50;-3.80;99.90
17053;DHT22;8643;48.824;11.422;2023-12-04T12:38:30;-3.70;99.90
17053;DHT22;8643;48.824;11.422;2023-12-04T12:41:06;-3.80;99.90
17053;DHT22;8643;48.824;11.422;2023-12-04T12:43:37;-4.00;99.90
17053;DHT22;8643;48.824;11.422;2023-12-04T12:46:06;-3.70;99.90
17053;DHT22;8643;48.824;11.422;2023-12-04T12:48:35;-3.60;99.90
17053;DHT22;8643;48.824;11.422;2023-12-04T12:51:04;-3.70;99.90
17053;DHT22;8643;48.824;11.422;2023-12-04T12:53:35;-3.80;99.90
17053;DHT22;8643;48.824;11.422;2023-12-04T12:56:04;-3.90;99.90
17053;DHT22;8643;48.824;11.422;2023-12-04T12:58:33;-4.10;99.90
17053;DHT22;8643;48.824;11.422;2023-12-04T13:01:03;-3.90;99.90
17053;DHT22;8643;48.824;11.422;2023-12-04T13:03:32;-3.60;99.90
17053;DHT22;8643;48.824;11.422;2023-12-04T13:06:01;-3.40;99.90
17053;DHT22;8643;48.824;11.422;2023-12-04T13:08:29;-3.60;99.90
17053;DHT22;8643;48.824;11.422;2023-12-04T13:10:59;-3.70;99.90
17053;DHT22;8643;48.824;11.422;2023-12-04T13:13:28;-3.80;99.90
17053;DHT22;8643;48.824;11.422;2023-12-04T13:15:59;-3.90;99.90
17053;DHT22;8643;48.824;11.422;2023-12-04T13:18:27;-3.90;99.90
17053;DHT22;8643;48.824;11.422;2023-12-04T13:20:58;-3.90;99.90
17053;DHT22;8643;48.824;11.422;2023-12-04T13:23:27;-3.80;99.90
17053;DHT22;8643;48.824;11.422;2023-12-04T13:25:55;-3.70;99.90
17053;DHT22;8643;48.824;11.422;2023-12-04T13:28:25;-3.70;99.90
17053;DHT22;8643;48.824;11.422;2023-12-04T13:31:06;-3.50;99.90
17053;DHT22;8643;48.824;11.422;2023-12-04T13:33:34;-3.40;99.90
17053;DHT22;8643;48.824;11.422;2023-12-04T13:36:04;-3.20;99.90
17053;DHT22;8643;48.824;11.422;2023-12-04T13:38:33;-3.00;99.90
17053;DHT22;8643;48.824;11.422;2023-12-04T13:41:04;-3.20;99.90
17053;DHT22;8643;48.824;11.422;2023-12-04T13:43:58;-3.10;99.90
17053;DHT22;8643;48.824;11.422;2023-12-04T13:46:27;-3.10;99.90
17053;DHT22;8643;48.824;11.422;2023-12-04T13:48:57;-3.20;99.90
17053;DHT22;8643;48.824;11.422;2023-12-04T13:51:25;-3.30;99.90
17053;DHT22;8643;48.824;11.422;2023-12-04T13:53:55;-3.50;99.90
17053;DHT22;8643;48.824;11.422;2023-12-04T13:56:28;-3.50;99.90
17053;DHT22;8643;48.824;11.422;2023-12-04T13:59:14;-3.70;99.90
17053;DHT22;8643;48.824;11.422;2023-12-04T14:01:48;-4.00;99.90
17053;DHT22;8643;48.824;11.422;2023-12-04T14:04:19;-4.20;99.90
17053;DHT22;8643;48.824;11.422;2023-12-04T14:06:51;-4.20;99.90
17053;DHT22;8643;48.824;11.422;2023-12-04T14:09:20;-4.20;99.90
17053;DHT22;8643;48.824;11.422;2023-12-04T14:11:49;-4.30;99.90
17053;DHT22;8643;48.824;11.422;2023-12-04T14:14:19;-4.30;99.90
17053;DHT22;8643;48.824;11.422;2023-12-04T14:16:48;-4.20;99.90
17053;DHT22;8643;48.824;11.422;2023-12-04T14:19:17;-4.20;99.90
17053;DHT22;8643;48.824;11.422;2023-12-04T14:21:48;-4.20;99.90
17053;DHT22;8643;48.824;11.422;2023-12-04T14:24:17;-4.20;99.90
17053;DHT22;8643;48.824;11.422;2023-12-04T14:26:45;-4.10;99.90
17053;DHT22;8643;48.824;11.422;2023-12-04T14:29:14;-4.10;99.90
17053;DHT22;8643;48.824;11.422;2023-12-04T14:31:47;-4.00;99.90
17053;DHT22;8643;48.824;11.422;2023-12-04T14:34:15;-4.10;99.90
17053;DHT22;8643;48.824;11.422;2023-12-04T14:36:44;-4.10;99.90
17053;DHT22;8643;48.824;11.422;2023-12-04T14:39:12;-4.10;99.90
17053;DHT22;8643;48.824;11.422;2023-12-04T14:41:44;-4.20;99.90
17053;DHT22;8643;48.824;11.422;2023-12-04T14:44:13;-4.20;99.90
17053;DHT22;8643;48.824;11.422;2023-12-04T14:46:42;-4.30;99.90
17053;DHT22;8643;48.824;11.422;2023-12-04T14:49:12;-4.30;99.90
17053;DHT22;8643;48.824;11.422;2023-12-04T14:51:41;-4.40;99.90
17053;DHT22;8643;48.824;11.422;2023-12-04T14:54:14;-4.40;99.90
17053;DHT22;8643;48.824;11.422;2023-12-04T14:56:49;-4.50;99.90
17053;DHT22;8643;48.824;11.422;2023-12-04T14:59:43;-4.50;99.90
17053;DHT22;8643;48.824;11.422;2023-12-04T15:02:46;-4.70;99.90
17053;DHT22;8643;48.824;11.422;2023-12-04T15:05:30;-4.80;99.90
17053;DHT22;8643;48.824;11.422;2023-12-04T15:10:59;-4.90;99.90
17053;DHT22;8643;48.824;11.422;2023-12-04T15:13:58;-4.90;99.90
17053;DHT22;8643;48.824;11.422;2023-12-04T15:16:35;-4.90;99.90
17053;DHT22;8643;48.824;11.422;2023-12-04T15:19:10;-4.90;99.90
17053;DHT22;8643;48.824;11.422;2023-12-04T15:22:00;-4.90;99.90
17053;DHT22;8643;48.824;11.422;2023-12-04T15:24:28;-4.90;99.90
17053;DHT22;8643;48.824;11.422;2023-12-04T15:26:56;-4.90;99.90
17053;DHT22;8643;48.824;11.422;2023-12-04T15:29:25;-4.90;99.90
17053;DHT22;8643;48.824;11.422;2023-12-04T15:31:52;-5.00;99.90
17053;DHT22;8643;48.824;11.422;2023-12-04T15:34:21;-5.00;99.90
17053;DHT22;8643;48.824;11.422;2023-12-04T15:36:49;-5.00;99.90
17053;DHT22;8643;48.824;11.422;2023-12-04T15:39:19;-5.10;99.90
17053;DHT22;8643;48.824;11.422;2023-12-04T15:41:48;-5.30;99.90
17053;DHT22;8643;48.824;11.422;2023-12-04T15:44:15;-5.40;99.90
17053;DHT22;8643;48.824;11.422;2023-12-04T15:46:44;-5.50;99.90
17053;DHT22;8643;48.824;11.422;2023-12-04T15:49:12;-5.50;99.90
17053;DHT22;8643;48.824;11.422;2023-12-04T15:51:42;-5.70;99.90
17053;DHT22;8643;48.824;11.422;2023-12-04T15:54:09;-5.70;99.90
17053;DHT22;8643;48.824;11.422;2023-12-04T15:56:39;-5.80;99.90
17053;DHT22;8643;48.824;11.422;2023-12-04T15:59:06;-5.80;99.90
17053;DHT22;8643;48.824;11.422;2023-12-04T16:01:35;-5.40;99.90
17053;DHT22;8643;48.824;11.422;2023-12-04T16:04:02;-5.50;99.90
17053;DHT22;8643;48.824;11.422;2023-12-04T16:06:31;-5.40;99.90
17053;DHT22;8643;48.824;11.422;2023-12-04T16:09:00;-5.30;99.90
17053;DHT22;8643;48.824;11.422;2023-12-04T16:11:28;-5.20;99.90
17053;DHT22;8643;48.824;11.422;2023-12-04T16:13:58;-5.10;99.90